createdAt,value
2023-05-10T00:01:28.901Z,94.60
2023-05-10T00:03:55.679Z,95.00
2023-05-10T00:06:22.530Z,94.80
2023-05-10T00:08:49.224Z,94.80
2023-05-10T00:11:15.994Z,94.60
2023-05-10T00:13:42.728Z,94.10
2023-05-10T00:16:09.481Z,93.90
2023-05-10T00:18:36.210Z,93.90
2023-05-10T00:21:02.912Z,94.20
2023-05-10T00:23:29.604Z,94.10
2023-05-10T00:25:56.786Z,94.20
2023-05-10T00:28:23.677Z,94.00
2023-05-10T00:30:50.517Z,93.70
2023-05-10T00:33:17.423Z,93.50
2023-05-10T00:35:44.122Z,93.60
2023-05-10T00:38:11.529Z,93.70
2023-05-10T00:40:38.575Z,93.70
2023-05-10T00:43:05.929Z,93.90
2023-05-10T00:45:34.043Z,93.40
2023-05-10T00:48:03.339Z,93.40
2023-05-10T00:50:31.703Z,93.40
2023-05-10T00:53:00.196Z,93.20
2023-05-10T00:55:27.185Z,92.30
2023-05-10T00:57:54.912Z,92.50
2023-05-10T01:00:21.673Z,92.80
2023-05-10T01:02:48.864Z,93.00
2023-05-10T01:05:16.165Z,93.30
2023-05-10T01:07:43.079Z,92.90
2023-05-10T01:10:10.436Z,93.20
2023-05-10T01:12:39.314Z,92.50
2023-05-10T01:15:08.694Z,92.30
2023-05-10T01:17:38.687Z,91.40
2023-05-10T01:20:06.471Z,91.00
2023-05-10T01:22:48.263Z,91.00
2023-05-10T01:25:56.693Z,91.00
2023-05-10T01:28:51.822Z,90.70
2023-05-10T01:31:44.615Z,90.70
2023-05-10T01:34:21.138Z,90.50
2023-05-10T01:37:03.726Z,89.90
2023-05-10T01:39:39.188Z,90.20
2023-05-10T01:42:15.632Z,90.10
2023-05-10T01:45:19.082Z,90.40
2023-05-10T01:47:51.300Z,90.80
2023-05-10T01:50:25.624Z,90.60
2023-05-10T01:52:55.693Z,90.30
2023-05-10T01:55:26.477Z,90.10
2023-05-10T01:58:01.169Z,90.10
2023-05-10T02:00:29.787Z,90.20
2023-05-10T02:02:57.201Z,90.30
2023-05-10T02:05:25.217Z,90.20
2023-05-10T02:07:53.523Z,90.50
2023-05-10T02:10:21.636Z,90.20
2023-05-10T02:12:49.623Z,90.70
2023-05-10T02:15:22.238Z,90.70
2023-05-10T02:17:49.452Z,90.80
2023-05-10T02:20:17.632Z,90.80
2023-05-10T02:22:48.025Z,91.30
2023-05-10T02:25:16.735Z,91.20
2023-05-10T02:27:45.645Z,90.70
2023-05-10T02:30:13.830Z,90.60
2023-05-10T02:32:41.560Z,90.00
2023-05-10T02:35:10.819Z,89.60
2023-05-10T02:37:39.491Z,89.00
2023-05-10T02:40:07.653Z,90.10
2023-05-10T02:42:37.871Z,90.00
2023-05-10T02:45:11.851Z,89.40
2023-05-10T02:47:38.909Z,90.00
2023-05-10T02:50:06.517Z,90.00
2023-05-10T02:52:41.363Z,90.20
2023-05-10T02:55:11.021Z,90.30
2023-05-10T02:57:42.364Z,91.10
2023-05-10T03:00:09.537Z,91.20
2023-05-10T03:02:37.336Z,91.30
2023-05-10T03:05:04.561Z,91.40
2023-05-10T03:07:31.464Z,91.80
2023-05-10T03:09:58.340Z,91.40
2023-05-10T03:12:46.285Z,91.50
2023-05-10T03:15:35.696Z,91.20
2023-05-10T03:18:13.203Z,91.30
2023-05-10T03:20:51.358Z,91.70
2023-05-10T03:23:35.845Z,91.60
2023-05-10T03:26:03.801Z,91.80
2023-05-10T03:28:32.377Z,92.40
2023-05-10T03:31:00.582Z,92.60
2023-05-10T03:33:27.527Z,92.70
2023-05-10T03:35:54.361Z,92.90
2023-05-10T03:38:21.099Z,93.20
2023-05-10T03:40:47.799Z,93.10
2023-05-10T03:43:14.512Z,93.30
2023-05-10T03:45:41.337Z,93.60
2023-05-10T03:48:08.087Z,93.50
2023-05-10T03:50:34.852Z,93.60
2023-05-10T03:53:01.592Z,94.30
2023-05-10T03:55:29.201Z,94.40
2023-05-10T03:57:55.953Z,94.70
2023-05-10T04:00:22.680Z,94.60
2023-05-10T04:02:49.585Z,94.80
2023-05-10T04:05:16.660Z,94.40
2023-05-10T04:07:45.260Z,93.40
2023-05-10T04:10:12.584Z,93.90
2023-05-10T04:12:39.322Z,94.00
2023-05-10T04:15:07.511Z,94.10
2023-05-10T04:17:34.303Z,94.50
2023-05-10T04:20:01.078Z,94.60
2023-05-10T04:22:28.790Z,94.60
2023-05-10T04:24:55.550Z,93.80
2023-05-10T04:27:22.290Z,94.10
2023-05-10T04:29:49.574Z,94.20
2023-05-10T04:32:17.343Z,94.80
2023-05-10T04:34:44.886Z,95.20
2023-05-10T04:37:11.548Z,95.00
2023-05-10T04:39:40.194Z,94.90
2023-05-10T04:42:08.308Z,94.90
2023-05-10T04:44:35.171Z,94.10
2023-05-10T04:47:03.208Z,94.20
2023-05-10T04:49:30.780Z,94.30
2023-05-10T04:51:57.464Z,93.80
2023-05-10T04:54:24.560Z,92.70
2023-05-10T04:56:51.222Z,92.20
2023-05-10T04:59:18.190Z,92.30
2023-05-10T05:01:44.932Z,92.90
2023-05-10T05:04:11.663Z,92.70
2023-05-10T05:06:38.357Z,92.00
2023-05-10T05:09:05.130Z,91.00
2023-05-10T05:11:31.901Z,90.30
2023-05-10T05:14:00.233Z,90.40
2023-05-10T05:16:27.471Z,89.80
2023-05-10T05:18:54.414Z,90.40
2023-05-10T05:21:21.314Z,90.50
2023-05-10T05:23:48.410Z,90.60
2023-05-10T05:26:16.058Z,90.60
2023-05-10T05:28:43.191Z,90.50
2023-05-10T05:31:10.166Z,90.60
2023-05-10T05:33:37.251Z,90.50
2023-05-10T05:36:05.688Z,90.40
2023-05-10T05:38:32.447Z,90.40
2023-05-10T05:40:59.246Z,90.60
2023-05-10T05:43:26.119Z,89.70
2023-05-10T05:45:58.757Z,88.30
2023-05-10T05:48:25.876Z,88.80
2023-05-10T05:50:56.779Z,87.30
2023-05-10T05:53:24.251Z,86.50
2023-05-10T05:55:55.418Z,86.30
2023-05-10T05:58:23.134Z,85.50
2023-05-10T06:00:50.283Z,86.30
2023-05-10T06:03:17.112Z,85.80
2023-05-10T06:05:43.857Z,84.60
2023-05-10T06:08:10.997Z,84.60
2023-05-10T06:10:38.105Z,84.60
2023-05-10T06:13:04.988Z,83.90
2023-05-10T06:15:31.809Z,83.80
2023-05-10T06:17:58.549Z,83.50
2023-05-10T06:20:25.233Z,82.90
2023-05-10T06:22:51.990Z,81.90
2023-05-10T06:25:19.415Z,82.60
2023-05-10T06:27:49.771Z,80.20
2023-05-10T06:30:18.660Z,80.00
2023-05-10T06:32:46.192Z,77.90
2023-05-10T06:35:13.041Z,78.40
2023-05-10T06:37:40.039Z,75.60
2023-05-10T06:40:07.848Z,75.30
2023-05-10T06:42:34.644Z,75.20
2023-05-10T06:45:01.335Z,75.60
2023-05-10T06:47:28.157Z,73.20
2023-05-10T06:49:54.946Z,73.00
2023-05-10T06:52:21.844Z,71.60
2023-05-10T06:54:48.550Z,72.00
2023-05-10T06:57:30.040Z,71.10
2023-05-10T07:00:01.619Z,70.30
2023-05-10T07:02:28.400Z,68.80
2023-05-10T07:04:55.391Z,66.40
2023-05-10T07:07:22.361Z,65.80
2023-05-10T07:09:50.689Z,66.00
2023-05-10T07:12:17.786Z,64.70
2023-05-10T07:14:44.536Z,64.20
2023-05-10T07:17:11.311Z,63.10
2023-05-10T07:19:38.230Z,61.40
2023-05-10T07:22:05.072Z,60.50
2023-05-10T07:24:33.067Z,57.90
2023-05-10T07:26:59.804Z,56.80
2023-05-10T07:29:26.993Z,54.10
2023-05-10T07:31:55.396Z,52.60
2023-05-10T07:34:26.365Z,51.70
2023-05-10T07:36:53.927Z,51.80
2023-05-10T07:39:27.859Z,50.10
2023-05-10T07:41:58.323Z,51.20
2023-05-10T07:44:25.065Z,51.80
2023-05-10T07:46:51.956Z,51.80
2023-05-10T07:49:18.943Z,52.10
2023-05-10T07:51:45.796Z,51.80
2023-05-10T07:54:13.576Z,51.50
2023-05-10T07:56:41.575Z,50.20
2023-05-10T07:59:10.096Z,50.90
2023-05-10T08:01:38.145Z,50.70
2023-05-10T08:04:05.010Z,52.10
2023-05-10T08:06:31.792Z,51.20
2023-05-10T08:08:58.594Z,49.50
2023-05-10T08:11:26.219Z,49.80
2023-05-10T08:13:56.820Z,50.30
2023-05-10T08:16:23.837Z,49.80
2023-05-10T08:18:51.747Z,50.50
2023-05-10T08:21:18.690Z,50.60
2023-05-10T08:23:45.427Z,48.90
2023-05-10T08:26:12.518Z,49.20
2023-05-10T08:28:39.336Z,49.60
2023-05-10T08:31:06.408Z,49.20
2023-05-10T08:33:33.431Z,49.30
2023-05-10T08:36:00.214Z,48.70
2023-05-10T08:38:28.169Z,48.70
2023-05-10T08:40:59.829Z,48.90
2023-05-10T08:43:31.043Z,48.90
2023-05-10T08:46:01.782Z,47.40
2023-05-10T08:48:31.059Z,48.30
2023-05-10T08:50:59.972Z,49.30
2023-05-10T08:53:29.685Z,50.60
2023-05-10T08:55:56.783Z,50.50
2023-05-10T08:58:23.794Z,51.00
2023-05-10T09:00:54.494Z,51.10
2023-05-10T09:03:21.609Z,50.60
2023-05-10T09:05:49.838Z,50.50
2023-05-10T09:08:19.345Z,51.20
2023-05-10T09:10:48.409Z,50.30
2023-05-10T09:13:16.633Z,47.90
2023-05-10T09:15:45.067Z,48.10
2023-05-10T09:18:12.675Z,48.40
2023-05-10T09:20:39.508Z,48.90
2023-05-10T09:23:06.865Z,49.00
2023-05-10T09:25:37.384Z,49.20
2023-05-10T09:28:08.404Z,50.40
2023-05-10T09:30:35.403Z,51.90
2023-05-10T09:33:02.680Z,52.50
2023-05-10T09:35:31.476Z,53.40
2023-05-10T09:38:03.407Z,51.60
2023-05-10T09:40:31.034Z,49.40
2023-05-10T09:43:02.510Z,48.60
2023-05-10T09:45:31.354Z,48.60
2023-05-10T09:47:59.692Z,50.90
2023-05-10T09:50:28.333Z,53.30
2023-05-10T09:53:00.102Z,55.70
2023-05-10T09:55:47.773Z,59.60
2023-05-10T09:58:15.625Z,61.40
2023-05-10T10:00:48.576Z,63.70
2023-05-10T10:03:17.557Z,67.10
2023-05-10T10:05:45.829Z,67.60
2023-05-10T10:08:13.374Z,67.70
2023-05-10T10:10:46.342Z,69.10
2023-05-10T10:13:13.862Z,71.20
2023-05-10T10:15:40.895Z,71.10
2023-05-10T10:18:08.899Z,71.00
2023-05-10T10:20:38.541Z,68.40
2023-05-10T10:23:05.221Z,67.90
2023-05-10T10:25:32.659Z,62.60
2023-05-10T10:28:19.587Z,61.80
2023-05-10T10:30:49.752Z,62.10
2023-05-10T10:33:56.747Z,61.90
2023-05-10T10:36:23.505Z,60.20
2023-05-10T10:38:53.932Z,58.80
2023-05-10T10:41:38.476Z,58.70
2023-05-10T10:44:27.480Z,59.70
2023-05-10T10:47:15.449Z,58.10
2023-05-10T10:49:42.606Z,57.10
2023-05-10T10:52:24.123Z,58.10
2023-05-10T10:54:59.970Z,56.80
2023-05-10T10:57:27.685Z,52.30
2023-05-10T11:00:23.684Z,53.60
2023-05-10T11:03:09.652Z,52.70
2023-05-10T11:05:39.611Z,51.20
2023-05-10T11:08:19.853Z,50.90
2023-05-10T11:11:01.372Z,51.00
2023-05-10T11:13:38.323Z,49.80
2023-05-10T11:16:22.740Z,49.60
2023-05-10T11:19:14.232Z,49.50
2023-05-10T11:22:12.693Z,50.20
2023-05-10T11:24:39.451Z,50.50
2023-05-10T11:27:07.257Z,49.50
2023-05-10T11:29:33.940Z,49.50
2023-05-10T11:32:01.191Z,49.00
2023-05-10T11:34:31.247Z,50.00
2023-05-10T11:36:58.697Z,48.90
2023-05-10T11:39:32.963Z,48.70
2023-05-10T11:42:00.484Z,49.00
2023-05-10T11:44:34.045Z,48.40
2023-05-10T11:47:01.876Z,48.60
2023-05-10T11:49:28.886Z,47.30
2023-05-10T11:52:06.173Z,48.30
2023-05-10T11:54:32.959Z,48.10
2023-05-10T11:56:59.713Z,49.80
2023-05-10T11:59:26.509Z,53.10
2023-05-10T12:01:53.333Z,53.40
2023-05-10T12:04:20.460Z,54.40
2023-05-10T12:06:47.667Z,54.40
2023-05-10T12:09:15.297Z,53.80
2023-05-10T12:11:44.369Z,53.20
2023-05-10T12:14:11.731Z,52.10
2023-05-10T12:16:38.664Z,51.00
2023-05-10T12:19:06.421Z,51.20
2023-05-10T12:21:34.530Z,54.00
2023-05-10T12:24:03.570Z,58.60
2023-05-10T12:26:30.868Z,61.10
2023-05-10T12:29:17.193Z,64.00
2023-05-10T12:31:58.220Z,67.20
2023-05-10T12:34:35.166Z,66.70
2023-05-10T12:37:02.099Z,67.80
2023-05-10T12:39:43.503Z,67.70
2023-05-10T12:42:11.264Z,66.60
2023-05-10T12:44:37.990Z,66.70
2023-05-10T12:47:04.787Z,65.10
2023-05-10T12:49:31.726Z,64.50
2023-05-10T12:51:58.442Z,60.10
2023-05-10T12:54:25.164Z,58.50
2023-05-10T12:56:52.202Z,58.00
2023-05-10T12:59:18.918Z,54.60
2023-05-10T13:01:45.941Z,52.90
2023-05-10T13:04:13.026Z,53.50
2023-05-10T13:06:39.777Z,51.90
2023-05-10T13:09:06.728Z,53.70
2023-05-10T13:11:33.719Z,55.50
2023-05-10T13:14:00.758Z,57.40
2023-05-10T13:16:27.824Z,60.50
2023-05-10T13:18:54.606Z,61.10
2023-05-10T13:21:21.379Z,63.80
2023-05-10T13:23:48.082Z,58.90
2023-05-10T13:26:14.941Z,60.90
2023-05-10T13:28:42.003Z,63.00
2023-05-10T13:31:08.961Z,63.70
2023-05-10T13:33:35.680Z,65.70
2023-05-10T13:36:02.607Z,64.20
2023-05-10T13:38:29.276Z,65.40
2023-05-10T13:40:56.244Z,66.30
2023-05-10T13:43:23.037Z,67.30
2023-05-10T13:45:49.796Z,64.80
2023-05-10T13:48:17.097Z,65.50
2023-05-10T13:50:44.333Z,65.30
2023-05-10T13:53:11.135Z,62.40
2023-05-10T13:55:37.841Z,62.60
2023-05-10T13:58:05.038Z,63.70
2023-05-10T14:00:32.101Z,63.20
2023-05-10T14:02:59.662Z,61.70
2023-05-10T14:05:26.800Z,63.80
2023-05-10T14:07:53.796Z,64.80
2023-05-10T14:10:21.004Z,66.50
2023-05-10T14:12:47.750Z,68.50
2023-05-10T14:15:14.659Z,72.20
2023-05-10T14:17:41.672Z,74.50
2023-05-10T14:20:09.423Z,74.50
2023-05-10T14:22:36.460Z,77.50
2023-05-10T14:25:03.451Z,78.60
2023-05-10T14:27:31.233Z,80.40
2023-05-10T14:29:58.057Z,81.00
2023-05-10T14:32:24.854Z,82.20
2023-05-10T14:34:51.575Z,81.50
2023-05-10T14:37:18.278Z,84.40
2023-05-10T14:39:44.991Z,85.60
2023-05-10T14:42:11.678Z,86.60
2023-05-10T14:44:38.374Z,87.60
2023-05-10T14:47:05.098Z,87.10
2023-05-10T14:49:31.794Z,87.50
2023-05-10T14:51:58.506Z,90.10
2023-05-10T14:54:25.262Z,90.10
2023-05-10T14:56:52.010Z,90.30
2023-05-10T14:59:18.741Z,91.30
2023-05-10T15:01:46.256Z,90.80
2023-05-10T15:04:14.471Z,90.90
2023-05-10T15:06:42.010Z,91.10
2023-05-10T15:09:08.794Z,91.20
2023-05-10T15:11:35.712Z,92.10
2023-05-10T15:14:02.918Z,92.60
2023-05-10T15:16:29.883Z,92.90
2023-05-10T15:18:56.724Z,93.30
2023-05-10T15:21:23.629Z,93.70
2023-05-10T15:23:50.378Z,93.50
2023-05-10T15:26:17.279Z,93.60
2023-05-10T15:28:43.992Z,93.50
2023-05-10T15:31:11.534Z,93.50
2023-05-10T15:33:39.442Z,92.70
2023-05-10T15:36:06.433Z,90.40
2023-05-10T15:38:33.159Z,89.60
2023-05-10T15:40:59.839Z,90.40
2023-05-10T15:43:26.677Z,90.10
2023-05-10T15:45:53.409Z,90.30
2023-05-10T15:48:20.101Z,90.80
2023-05-10T15:50:46.798Z,90.70
2023-05-10T15:53:13.580Z,91.00
2023-05-10T15:55:40.470Z,90.50
2023-05-10T15:58:07.163Z,90.80
2023-05-10T16:00:34.017Z,90.80
2023-05-10T16:03:00.909Z,88.80
2023-05-10T16:05:31.918Z,87.80
2023-05-10T16:07:58.666Z,88.50
2023-05-10T16:10:25.502Z,87.20
2023-05-10T16:12:52.423Z,89.20
2023-05-10T16:15:19.330Z,90.00
2023-05-10T16:17:46.187Z,90.00
2023-05-10T16:20:13.080Z,88.90
2023-05-10T16:22:39.864Z,88.90
2023-05-10T16:25:06.852Z,88.90
2023-05-10T16:27:33.809Z,88.80
2023-05-10T16:30:00.595Z,89.20
2023-05-10T16:32:27.445Z,90.10
2023-05-10T16:34:54.213Z,88.40
2023-05-10T16:37:20.951Z,88.30
2023-05-10T16:39:47.921Z,87.00
2023-05-10T16:42:14.734Z,86.10
2023-05-10T16:44:41.732Z,87.00
2023-05-10T16:47:08.707Z,87.60
2023-05-10T16:49:37.342Z,88.20
2023-05-10T16:52:04.188Z,86.90
2023-05-10T16:54:31.022Z,85.00
2023-05-10T16:56:57.781Z,85.80
2023-05-10T16:59:24.539Z,85.30
2023-05-10T17:01:53.187Z,81.70
2023-05-10T17:04:20.293Z,81.70
2023-05-10T17:06:47.162Z,81.70
2023-05-10T17:09:14.002Z,82.80
2023-05-10T17:11:42.000Z,82.20
2023-05-10T17:14:08.807Z,80.40
2023-05-10T17:16:35.825Z,79.50
2023-05-10T17:19:02.750Z,80.40
2023-05-10T17:21:29.452Z,78.00
2023-05-10T17:23:56.201Z,79.00
2023-05-10T17:26:22.912Z,78.60
2023-05-10T17:28:49.618Z,79.80
2023-05-10T17:31:16.999Z,78.70
2023-05-10T17:33:43.740Z,80.70
2023-05-10T17:36:10.477Z,77.30
2023-05-10T17:38:37.555Z,78.00
2023-05-10T17:41:04.338Z,79.50
2023-05-10T17:43:31.145Z,79.60
2023-05-10T17:45:57.875Z,80.80
2023-05-10T17:48:24.630Z,81.40
2023-05-10T17:50:51.579Z,80.30
2023-05-10T17:53:18.550Z,79.30
2023-05-10T17:55:45.364Z,80.10
2023-05-10T17:58:12.927Z,80.10
2023-05-10T18:00:40.022Z,80.80
2023-05-10T18:03:06.873Z,79.80
2023-05-10T18:05:37.785Z,81.10
2023-05-10T18:08:05.612Z,80.40
2023-05-10T18:10:32.689Z,81.10
2023-05-10T18:12:59.497Z,82.20
2023-05-10T18:15:27.629Z,82.80
2023-05-10T18:17:55.794Z,83.40
2023-05-10T18:20:22.943Z,84.90
2023-05-10T18:22:49.755Z,85.40
2023-05-10T18:25:17.029Z,86.00
2023-05-10T18:27:44.225Z,86.70
2023-05-10T18:30:12.445Z,86.70
2023-05-10T18:32:39.854Z,86.50
2023-05-10T18:35:07.727Z,85.30
2023-05-10T18:37:35.328Z,85.50
2023-05-10T18:40:02.211Z,85.90
2023-05-10T18:42:28.906Z,85.30
2023-05-10T18:44:55.872Z,84.80
2023-05-10T18:47:22.741Z,86.60
2023-05-10T18:49:49.584Z,86.40
2023-05-10T18:52:16.348Z,86.30
2023-05-10T18:54:43.100Z,87.90
2023-05-10T18:57:09.944Z,89.40
2023-05-10T18:59:36.701Z,90.10
2023-05-10T19:02:03.539Z,90.80
2023-05-10T19:04:30.505Z,91.30
2023-05-10T19:06:57.426Z,91.90
2023-05-10T19:09:24.256Z,92.00
2023-05-10T19:11:51.528Z,92.20
2023-05-10T19:14:18.314Z,92.30
2023-05-10T19:16:45.100Z,92.20
2023-05-10T19:19:12.041Z,91.60
2023-05-10T19:21:38.822Z,91.70
2023-05-10T19:24:05.938Z,91.60
2023-05-10T19:26:32.646Z,91.40
2023-05-10T19:28:59.318Z,91.30
2023-05-10T19:31:26.074Z,91.40
2023-05-10T19:33:53.698Z,91.40
2023-05-10T19:36:20.874Z,91.60
2023-05-10T19:38:48.862Z,91.60
2023-05-10T19:41:15.988Z,92.20
2023-05-10T19:43:42.714Z,92.60
2023-05-10T19:46:09.966Z,92.80
2023-05-10T19:48:36.790Z,92.70
2023-05-10T19:51:07.644Z,92.00
2023-05-10T19:53:36.135Z,91.90
2023-05-10T19:56:06.548Z,91.90
2023-05-10T19:58:34.189Z,91.90
2023-05-10T20:01:01.156Z,92.00
2023-05-10T20:03:28.656Z,92.60
2023-05-10T20:05:55.445Z,93.10
2023-05-10T20:08:22.244Z,93.10
2023-05-10T20:10:48.994Z,93.20
2023-05-10T20:13:15.780Z,93.00
2023-05-10T20:15:42.512Z,92.80
2023-05-10T20:18:09.269Z,93.40
2023-05-10T20:20:35.987Z,93.40
2023-05-10T20:23:02.756Z,93.30
2023-05-10T20:25:29.454Z,93.60
2023-05-10T20:27:56.213Z,93.20
2023-05-10T20:30:23.054Z,93.40
2023-05-10T20:32:49.790Z,93.70
2023-05-10T20:35:16.817Z,93.50
2023-05-10T20:37:43.596Z,93.30
2023-05-10T20:40:11.284Z,93.00
2023-05-10T20:42:38.213Z,93.10
2023-05-10T20:45:05.460Z,92.70
2023-05-10T20:47:32.492Z,92.60
2023-05-10T20:49:59.162Z,92.30
2023-05-10T20:52:25.888Z,92.50
2023-05-10T20:54:52.568Z,92.70
2023-05-10T20:57:20.183Z,92.20
2023-05-10T20:59:46.920Z,92.40
2023-05-10T21:02:13.613Z,91.30
2023-05-10T21:04:40.408Z,91.30
2023-05-10T21:07:07.232Z,91.90
2023-05-10T21:09:35.216Z,91.50
2023-05-10T21:12:03.362Z,91.80
2023-05-10T21:14:31.049Z,91.60
2023-05-10T21:16:57.861Z,91.90
2023-05-10T21:19:24.646Z,91.40
2023-05-10T21:21:51.435Z,91.50
2023-05-10T21:24:18.241Z,91.70
2023-05-10T21:26:45.364Z,91.70
2023-05-10T21:29:12.110Z,91.50
2023-05-10T21:31:38.873Z,91.50
2023-05-10T21:34:05.808Z,92.00
2023-05-10T21:36:32.500Z,92.20
2023-05-10T21:38:59.209Z,92.20
2023-05-10T21:41:26.584Z,92.50
2023-05-10T21:43:53.252Z,92.50
2023-05-10T21:46:20.203Z,92.70
2023-05-10T21:48:46.955Z,92.40
2023-05-10T21:51:14.302Z,91.90
2023-05-10T21:53:41.152Z,92.20
2023-05-10T21:56:07.840Z,92.30
2023-05-10T21:58:34.592Z,92.50
2023-05-10T22:01:01.433Z,92.90
2023-05-10T22:03:28.372Z,93.40
2023-05-10T22:05:55.249Z,93.60
2023-05-10T22:08:22.124Z,93.80
2023-05-10T22:10:48.810Z,93.90
2023-05-10T22:13:15.598Z,93.70
2023-05-10T22:15:43.292Z,94.10
2023-05-10T22:18:10.448Z,94.00
2023-05-10T22:20:37.278Z,93.60
2023-05-10T22:23:03.987Z,93.20
2023-05-10T22:25:30.903Z,93.50
2023-05-10T22:27:57.638Z,93.50
2023-05-10T22:30:24.344Z,94.00
2023-05-10T22:32:51.066Z,94.10
2023-05-10T22:35:17.863Z,94.50
2023-05-10T22:37:44.538Z,94.60
2023-05-10T22:40:11.809Z,95.20
2023-05-10T22:42:38.506Z,95.40
2023-05-10T22:45:05.856Z,95.50
2023-05-10T22:47:33.582Z,95.90
2023-05-10T22:50:03.262Z,96.20
2023-05-10T22:52:30.039Z,96.50
2023-05-10T22:54:57.059Z,96.30
2023-05-10T22:57:23.908Z,95.80
2023-05-10T22:59:50.679Z,94.60
2023-05-10T23:02:17.497Z,94.40
2023-05-10T23:04:44.291Z,94.60
2023-05-10T23:07:11.548Z,93.90
2023-05-10T23:09:38.229Z,94.20
2023-05-10T23:12:05.074Z,94.40
2023-05-10T23:14:31.772Z,94.60
2023-05-10T23:16:58.530Z,94.40
2023-05-10T23:19:25.228Z,94.70
2023-05-10T23:21:52.013Z,94.90
2023-05-10T23:24:18.834Z,95.30
2023-05-10T23:26:46.577Z,95.50
2023-05-10T23:29:13.397Z,95.60
2023-05-10T23:31:45.277Z,95.70
2023-05-10T23:34:12.513Z,96.10
2023-05-10T23:36:39.433Z,96.50
2023-05-10T23:39:06.868Z,96.60
2023-05-10T23:41:33.823Z,96.60
2023-05-10T23:44:02.371Z,96.00
2023-05-10T23:46:29.232Z,96.10
2023-05-10T23:48:56.130Z,96.30
2023-05-10T23:51:22.972Z,96.20
2023-05-10T23:53:49.698Z,96.10
2023-05-10T23:56:16.380Z,96.10
2023-05-10T23:58:43.084Z,96.10
